US-0029 weather

CLOSED Carrera Airpark
Mead, Colorado, United States

Public forecast

Using degrees Fahrenheit for public forecast. Weather courtesy of forecast.io.

METAR (pilot weather report)

Closest report is Vance Brand Airport, 10.2 nm (18.9 km) WSW. Retrieved 2019/08/22 03:35 UTC (40 seconds ago):

KLMO 220335Z AUTO 11005KT 10SM CLR 22/09 A3017 RMK AO2 T02180092

TAF (pilot weather forecast)

Forecast is more than 12 hours old.

Closest forecast is Rocky Mountain Metropolitan Airport, 20.0 nm (37.0 km) SSW. Retrieved 2019/08/21 00:28 UTC (1 day ago):

TAF KBJC 212326Z 2200/2224 03007KT P6SM BKN050 TEMPO 2200/2203 VRB20G35KT -TSRA BKN050CB FM220300 30010KT P6SM BKN060 FM220800 34008KT P6SM FEW020 SCT080 SCT150 FM221600 06007KT P6SM SCT100 FM221900 09008KT P6SM SCT080 BKN200 PROB30 2222/2224 VRB20G35KT -TSRA BKN060CB